sensor_id;sensor_type;location;lat;lon;timestamp;pressure;altitude;pressure_sealevel;temperature;humidity
17711;BME280;8975;57.718;12.134;2023-02-02T00:00:48;115940.22;;;-142.68;44.91
17711;BME280;8975;57.718;12.134;2023-02-02T00:03:13;115940.22;;;-142.68;44.14
17711;BME280;8975;57.718;12.134;2023-02-02T00:05:47;115940.22;;;-142.68;45.13
17711;BME280;8975;57.718;12.134;2023-02-02T00:08:17;115940.22;;;-142.68;44.74
17711;BME280;8975;57.718;12.134;2023-02-02T00:10:43;115940.22;;;-142.68;44.51
17711;BME280;8975;57.718;12.134;2023-02-02T00:13:09;115940.22;;;-142.68;43.68
17711;BME280;8975;57.718;12.134;2023-02-02T00:15:35;115940.22;;;-142.68;44.10
17711;BME280;8975;57.718;12.134;2023-02-02T00:18:00;115940.22;;;-142.68;44.14
17711;BME280;8975;57.718;12.134;2023-02-02T00:20:26;115940.22;;;-142.68;43.72
17711;BME280;8975;57.718;12.134;2023-02-02T00:22:51;115940.22;;;-142.68;44.25
17711;BME280;8975;57.718;12.134;2023-02-02T00:25:16;115940.22;;;-142.68;44.53
17711;BME280;8975;57.718;12.134;2023-02-02T00:27:43;115940.22;;;-142.68;44.10
17711;BME280;8975;57.718;12.134;2023-02-02T00:30:08;115940.22;;;-142.68;44.42
17711;BME280;8975;57.718;12.134;2023-02-02T00:32:34;115940.22;;;-142.68;44.78
17711;BME280;8975;57.718;12.134;2023-02-02T00:34:59;115940.22;;;-142.68;44.02
17711;BME280;8975;57.718;12.134;2023-02-02T00:37:25;115940.22;;;-142.68;43.61
17711;BME280;8975;57.718;12.134;2023-02-02T00:39:50;115940.22;;;-142.68;43.89
17711;BME280;8975;57.718;12.134;2023-02-02T00:42:16;115940.22;;;-142.68;43.97
17711;BME280;8975;57.718;12.134;2023-02-02T00:44:42;115940.22;;;-142.68;44.15
17711;BME280;8975;57.718;12.134;2023-02-02T00:47:26;115940.22;;;-142.68;44.15
17711;BME280;8975;57.718;12.134;2023-02-02T00:49:52;115940.22;;;-142.68;43.97
17711;BME280;8975;57.718;12.134;2023-02-02T00:52:18;115940.22;;;-142.68;45.08
17711;BME280;8975;57.718;12.134;2023-02-02T00:54:43;115940.22;;;-142.68;44.50
17711;BME280;8975;57.718;12.134;2023-02-02T00:57:12;115940.22;;;-142.68;44.14
17711;BME280;8975;57.718;12.134;2023-02-02T00:59:38;115940.22;;;-142.68;44.17
17711;BME280;8975;57.718;12.134;2023-02-02T01:02:03;115940.22;;;-142.68;43.12
17711;BME280;8975;57.718;12.134;2023-02-02T01:04:29;115940.22;;;-142.68;43.60
17711;BME280;8975;57.718;12.134;2023-02-02T01:06:54;115940.22;;;-142.68;44.57
17711;BME280;8975;57.718;12.134;2023-02-02T01:09:20;115940.22;;;-142.68;43.87
17711;BME280;8975;57.718;12.134;2023-02-02T01:11:47;115940.22;;;-142.68;44.53
17711;BME280;8975;57.718;12.134;2023-02-02T01:14:12;115940.22;;;-142.68;43.22
17711;BME280;8975;57.718;12.134;2023-02-02T01:16:38;115940.22;;;-142.68;44.18
17711;BME280;8975;57.718;12.134;2023-02-02T01:19:03;115940.22;;;-142.68;43.84
17711;BME280;8975;57.718;12.134;2023-02-02T01:21:29;115940.22;;;-142.68;43.93
17711;BME280;8975;57.718;12.134;2023-02-02T01:23:55;115940.22;;;-142.68;43.90
17711;BME280;8975;57.718;12.134;2023-02-02T01:26:20;115940.22;;;-142.68;43.76
17711;BME280;8975;57.718;12.134;2023-02-02T01:28:46;115940.22;;;-142.68;43.73
17711;BME280;8975;57.718;12.134;2023-02-02T01:31:14;115940.22;;;-142.68;43.95
17711;BME280;8975;57.718;12.134;2023-02-02T01:33:40;115940.22;;;-142.68;43.16
17711;BME280;8975;57.718;12.134;2023-02-02T01:36:23;115940.22;;;-142.68;43.11
17711;BME280;8975;57.718;12.134;2023-02-02T01:38:49;115940.22;;;-142.68;42.90
17711;BME280;8975;57.718;12.134;2023-02-02T01:41:20;115940.22;;;-142.68;43.17
17711;BME280;8975;57.718;12.134;2023-02-02T01:46:16;115940.22;;;-142.68;43.15
17711;BME280;8975;57.718;12.134;2023-02-02T01:48:46;115940.22;;;-142.68;43.35
17711;BME280;8975;57.718;12.134;2023-02-02T01:51:18;115940.22;;;-142.68;42.64
17711;BME280;8975;57.718;12.134;2023-02-02T01:53:46;115940.22;;;-142.68;42.80
17711;BME280;8975;57.718;12.134;2023-02-02T01:56:17;115940.22;;;-142.68;43.77
17711;BME280;8975;57.718;12.134;2023-02-02T01:58:43;115940.22;;;-142.68;43.88
17711;BME280;8975;57.718;12.134;2023-02-02T02:01:10;115940.22;;;-142.68;42.85
17711;BME280;8975;57.718;12.134;2023-02-02T02:03:36;115940.22;;;-142.68;43.17
17711;BME280;8975;57.718;12.134;2023-02-02T02:06:07;115940.22;;;-142.68;43.37
17711;BME280;8975;57.718;12.134;2023-02-02T02:08:48;115940.22;;;-142.68;43.50
17711;BME280;8975;57.718;12.134;2023-02-02T02:11:17;115940.22;;;-142.68;42.91
17711;BME280;8975;57.718;12.134;2023-02-02T02:13:42;115940.22;;;-142.68;42.45
17711;BME280;8975;57.718;12.134;2023-02-02T02:19:19;115940.22;;;-142.68;42.75
17711;BME280;8975;57.718;12.134;2023-02-02T02:31:06;115940.22;;;-142.68;44.15
17711;BME280;8975;57.718;12.134;2023-02-02T02:39:09;115940.22;;;-142.68;44.17
17711;BME280;8975;57.718;12.134;2023-02-02T02:41:41;115940.22;;;-142.68;43.48
17711;BME280;8975;57.718;12.134;2023-02-02T02:44:10;115940.22;;;-142.68;43.27
17711;BME280;8975;57.718;12.134;2023-02-02T02:46:38;115940.22;;;-142.68;43.89
17711;BME280;8975;57.718;12.134;2023-02-02T02:49:07;115940.22;;;-142.68;43.35
17711;BME280;8975;57.718;12.134;2023-02-02T02:51:52;115940.22;;;-142.68;43.21
17711;BME280;8975;57.718;12.134;2023-02-02T02:54:29;115940.22;;;-142.68;43.12
17711;BME280;8975;57.718;12.134;2023-02-02T03:02:29;115940.22;;;-142.68;42.55
17711;BME280;8975;57.718;12.134;2023-02-02T03:05:07;115940.22;;;-142.68;42.50
17711;BME280;8975;57.718;12.134;2023-02-02T03:07:40;115940.22;;;-142.68;42.32
17711;BME280;8975;57.718;12.134;2023-02-02T03:10:10;115940.22;;;-142.68;42.05
17711;BME280;8975;57.718;12.134;2023-02-02T03:12:48;115940.22;;;-142.68;42.50
17711;BME280;8975;57.718;12.134;2023-02-02T03:15:15;115940.22;;;-142.68;43.11
17711;BME280;8975;57.718;12.134;2023-02-02T03:17:42;115940.22;;;-142.68;42.82
17711;BME280;8975;57.718;12.134;2023-02-02T03:20:08;115940.22;;;-142.68;42.24
17711;BME280;8975;57.718;12.134;2023-02-02T03:22:34;115940.22;;;-142.68;42.95
17711;BME280;8975;57.718;12.134;2023-02-02T03:24:59;115940.22;;;-142.68;42.30
17711;BME280;8975;57.718;12.134;2023-02-02T03:27:26;115940.22;;;-142.68;42.00
17711;BME280;8975;57.718;12.134;2023-02-02T03:29:51;115940.22;;;-142.68;42.66
17711;BME280;8975;57.718;12.134;2023-02-02T03:32:17;115940.22;;;-142.68;41.97
17711;BME280;8975;57.718;12.134;2023-02-02T03:34:42;115940.22;;;-142.68;41.87
17711;BME280;8975;57.718;12.134;2023-02-02T03:37:08;115940.22;;;-142.68;41.90
17711;BME280;8975;57.718;12.134;2023-02-02T03:39:33;115940.22;;;-142.68;42.36
17711;BME280;8975;57.718;12.134;2023-02-02T03:41:59;115940.22;;;-142.68;41.78
17711;BME280;8975;57.718;12.134;2023-02-02T03:44:24;115940.22;;;-142.68;42.19
17711;BME280;8975;57.718;12.134;2023-02-02T03:46:52;115940.22;;;-142.68;41.37
17711;BME280;8975;57.718;12.134;2023-02-02T03:49:18;115940.22;;;-142.68;41.82
17711;BME280;8975;57.718;12.134;2023-02-02T03:51:44;115940.22;;;-142.68;41.57
17711;BME280;8975;57.718;12.134;2023-02-02T03:54:09;115940.22;;;-142.68;41.85
17711;BME280;8975;57.718;12.134;2023-02-02T03:56:36;115940.22;;;-142.68;42.06
17711;BME280;8975;57.718;12.134;2023-02-02T03:59:02;115940.22;;;-142.68;41.72
17711;BME280;8975;57.718;12.134;2023-02-02T04:01:28;115940.22;;;-142.68;42.09
17711;BME280;8975;57.718;12.134;2023-02-02T04:03:55;115940.22;;;-142.68;42.00
17711;BME280;8975;57.718;12.134;2023-02-02T04:06:21;115940.22;;;-142.68;41.39
17711;BME280;8975;57.718;12.134;2023-02-02T04:08:47;115940.22;;;-142.68;40.99
17711;BME280;8975;57.718;12.134;2023-02-02T04:11:12;115940.22;;;-142.68;40.97
17711;BME280;8975;57.718;12.134;2023-02-02T04:13:37;115940.22;;;-142.68;41.83
17711;BME280;8975;57.718;12.134;2023-02-02T04:16:04;115940.22;;;-142.68;41.14
17711;BME280;8975;57.718;12.134;2023-02-02T04:18:30;115940.22;;;-142.68;40.91
17711;BME280;8975;57.718;12.134;2023-02-02T04:21:00;115940.22;;;-142.68;40.96
17711;BME280;8975;57.718;12.134;2023-02-02T04:23:27;115940.22;;;-142.68;40.59
17711;BME280;8975;57.718;12.134;2023-02-02T04:25:53;115940.22;;;-142.68;40.62
17711;BME280;8975;57.718;12.134;2023-02-02T04:28:20;115940.22;;;-142.68;40.10
17711;BME280;8975;57.718;12.134;2023-02-02T04:30:46;115940.22;;;-142.68;40.87
17711;BME280;8975;57.718;12.134;2023-02-02T04:33:12;115940.22;;;-142.68;40.59
17711;BME280;8975;57.718;12.134;2023-02-02T04:35:37;115940.22;;;-142.68;40.87
17711;BME280;8975;57.718;12.134;2023-02-02T04:38:03;115940.22;;;-142.68;40.52
17711;BME280;8975;57.718;12.134;2023-02-02T04:40:28;115940.22;;;-142.68;40.80
17711;BME280;8975;57.718;12.134;2023-02-02T04:42:53;115940.22;;;-142.68;40.79
17711;BME280;8975;57.718;12.134;2023-02-02T04:45:19;115940.22;;;-142.68;40.36
17711;BME280;8975;57.718;12.134;2023-02-02T04:47:44;115940.22;;;-142.68;40.54
17711;BME280;8975;57.718;12.134;2023-02-02T04:50:10;115940.22;;;-142.68;40.33
17711;BME280;8975;57.718;12.134;2023-02-02T04:52:36;115940.22;;;-142.68;40.53
17711;BME280;8975;57.718;12.134;2023-02-02T04:55:02;115940.22;;;-142.68;41.05
17711;BME280;8975;57.718;12.134;2023-02-02T04:57:27;115940.22;;;-142.68;40.51
17711;BME280;8975;57.718;12.134;2023-02-02T04:59:53;115940.22;;;-142.68;41.10
17711;BME280;8975;57.718;12.134;2023-02-02T05:02:19;115940.22;;;-142.68;41.67
17711;BME280;8975;57.718;12.134;2023-02-02T05:04:45;115940.22;;;-142.68;41.62
17711;BME280;8975;57.718;12.134;2023-02-02T05:07:10;115940.22;;;-142.68;41.21
17711;BME280;8975;57.718;12.134;2023-02-02T05:09:36;115940.22;;;-142.68;41.26
17711;BME280;8975;57.718;12.134;2023-02-02T05:12:01;115940.22;;;-142.68;41.10
17711;BME280;8975;57.718;12.134;2023-02-02T05:14:27;115940.22;;;-142.68;41.01
17711;BME280;8975;57.718;12.134;2023-02-02T05:16:52;115940.22;;;-142.68;40.98
17711;BME280;8975;57.718;12.134;2023-02-02T05:19:18;115940.22;;;-142.68;41.30
17711;BME280;8975;57.718;12.134;2023-02-02T05:21:44;115940.22;;;-142.68;41.26
17711;BME280;8975;57.718;12.134;2023-02-02T05:24:10;115940.22;;;-142.68;40.88
17711;BME280;8975;57.718;12.134;2023-02-02T05:26:36;115940.22;;;-142.68;41.14
17711;BME280;8975;57.718;12.134;2023-02-02T05:29:02;115940.22;;;-142.68;41.76
17711;BME280;8975;57.718;12.134;2023-02-02T05:31:28;115940.22;;;-142.68;41.34
17711;BME280;8975;57.718;12.134;2023-02-02T05:33:55;115940.22;;;-142.68;41.16
17711;BME280;8975;57.718;12.134;2023-02-02T05:36:20;115940.22;;;-142.68;41.19
17711;BME280;8975;57.718;12.134;2023-02-02T05:38:46;115940.22;;;-142.68;40.93
17711;BME280;8975;57.718;12.134;2023-02-02T05:41:11;115940.22;;;-142.68;41.11
17711;BME280;8975;57.718;12.134;2023-02-02T05:43:37;115940.22;;;-142.68;41.28
17711;BME280;8975;57.718;12.134;2023-02-02T05:46:02;115940.22;;;-142.68;40.87
17711;BME280;8975;57.718;12.134;2023-02-02T05:48:28;115940.22;;;-142.68;41.26
17711;BME280;8975;57.718;12.134;2023-02-02T05:50:58;115940.22;;;-142.68;41.28
17711;BME280;8975;57.718;12.134;2023-02-02T05:53:27;115940.22;;;-142.68;41.55
17711;BME280;8975;57.718;12.134;2023-02-02T05:55:52;115940.22;;;-142.68;41.57
17711;BME280;8975;57.718;12.134;2023-02-02T05:58:18;115940.22;;;-142.68;41.36
17711;BME280;8975;57.718;12.134;2023-02-02T06:00:43;115940.22;;;-142.68;41.94
17711;BME280;8975;57.718;12.134;2023-02-02T06:03:08;115940.22;;;-142.68;42.17
17711;BME280;8975;57.718;12.134;2023-02-02T06:05:34;115940.22;;;-142.68;41.35
17711;BME280;8975;57.718;12.134;2023-02-02T06:07:59;115940.22;;;-142.68;41.41
17711;BME280;8975;57.718;12.134;2023-02-02T06:10:25;115940.22;;;-142.68;41.07
17711;BME280;8975;57.718;12.134;2023-02-02T06:12:50;115940.22;;;-142.68;41.52
17711;BME280;8975;57.718;12.134;2023-02-02T06:15:16;115940.22;;;-142.68;41.60
17711;BME280;8975;57.718;12.134;2023-02-02T06:17:41;115940.22;;;-142.68;41.65
17711;BME280;8975;57.718;12.134;2023-02-02T06:20:07;115940.22;;;-142.68;41.44
17711;BME280;8975;57.718;12.134;2023-02-02T06:22:32;115940.22;;;-142.68;42.14
17711;BME280;8975;57.718;12.134;2023-02-02T06:24:58;115940.22;;;-142.68;41.59
17711;BME280;8975;57.718;12.134;2023-02-02T06:27:23;115940.22;;;-142.68;40.77
17711;BME280;8975;57.718;12.134;2023-02-02T06:29:49;115940.22;;;-142.68;40.75
17711;BME280;8975;57.718;12.134;2023-02-02T06:32:14;115940.22;;;-142.68;40.17
17711;BME280;8975;57.718;12.134;2023-02-02T06:34:40;115940.22;;;-142.68;40.80
17711;BME280;8975;57.718;12.134;2023-02-02T06:37:05;115940.22;;;-142.68;40.74
17711;BME280;8975;57.718;12.134;2023-02-02T06:39:31;115940.22;;;-142.68;40.80
17711;BME280;8975;57.718;12.134;2023-02-02T06:41:56;115940.22;;;-142.68;40.25
17711;BME280;8975;57.718;12.134;2023-02-02T06:44:21;115940.22;;;-142.68;41.15
17711;BME280;8975;57.718;12.134;2023-02-02T06:46:47;115940.22;;;-142.68;41.26
17711;BME280;8975;57.718;12.134;2023-02-02T06:49:12;115940.22;;;-142.68;41.03
17711;BME280;8975;57.718;12.134;2023-02-02T06:51:38;115940.22;;;-142.68;41.03
17711;BME280;8975;57.718;12.134;2023-02-02T06:54:03;115940.22;;;-142.68;40.67
17711;BME280;8975;57.718;12.134;2023-02-02T06:56:29;115940.22;;;-142.68;40.62
17711;BME280;8975;57.718;12.134;2023-02-02T06:58:54;115940.22;;;-142.68;41.41
17711;BME280;8975;57.718;12.134;2023-02-02T07:01:20;115940.22;;;-142.68;41.00
17711;BME280;8975;57.718;12.134;2023-02-02T07:03:48;115940.22;;;-142.68;40.65
17711;BME280;8975;57.718;12.134;2023-02-02T07:06:22;115940.22;;;-142.68;40.41
17711;BME280;8975;57.718;12.134;2023-02-02T07:08:49;115940.22;;;-142.68;41.38
17711;BME280;8975;57.718;12.134;2023-02-02T07:11:15;115940.22;;;-142.68;41.70
17711;BME280;8975;57.718;12.134;2023-02-02T07:13:45;115940.22;;;-142.68;41.21
17711;BME280;8975;57.718;12.134;2023-02-02T07:16:12;115940.22;;;-142.68;40.56
17711;BME280;8975;57.718;12.134;2023-02-02T07:18:38;115940.22;;;-142.68;40.92
17711;BME280;8975;57.718;12.134;2023-02-02T07:21:05;115940.22;;;-142.68;40.56
17711;BME280;8975;57.718;12.134;2023-02-02T07:23:31;115940.22;;;-142.68;40.66
17711;BME280;8975;57.718;12.134;2023-02-02T07:28:27;115940.22;;;-142.68;40.66
17711;BME280;8975;57.718;12.134;2023-02-02T07:30:53;115940.22;;;-142.68;40.74
17711;BME280;8975;57.718;12.134;2023-02-02T07:33:18;115940.22;;;-142.68;40.53
17711;BME280;8975;57.718;12.134;2023-02-02T07:35:43;115940.22;;;-142.68;40.35
17711;BME280;8975;57.718;12.134;2023-02-02T07:38:09;115940.22;;;-142.68;40.78
17711;BME280;8975;57.718;12.134;2023-02-02T07:40:34;115940.22;;;-142.68;40.32
17711;BME280;8975;57.718;12.134;2023-02-02T07:43:00;115940.22;;;-142.68;40.15
17711;BME280;8975;57.718;12.134;2023-02-02T07:45:26;115940.22;;;-142.68;40.16
17711;BME280;8975;57.718;12.134;2023-02-02T07:47:58;115940.22;;;-142.68;40.49
17711;BME280;8975;57.718;12.134;2023-02-02T07:50:25;115940.22;;;-142.68;40.29
17711;BME280;8975;57.718;12.134;2023-02-02T07:52:51;115940.22;;;-142.68;40.62
17711;BME280;8975;57.718;12.134;2023-02-02T07:55:17;115940.22;;;-142.68;40.80
17711;BME280;8975;57.718;12.134;2023-02-02T07:57:42;115940.22;;;-142.68;40.18
17711;BME280;8975;57.718;12.134;2023-02-02T08:00:08;115940.22;;;-142.68;41.16
17711;BME280;8975;57.718;12.134;2023-02-02T08:02:34;115940.22;;;-142.68;41.35
17711;BME280;8975;57.718;12.134;2023-02-02T08:05:00;115940.22;;;-142.68;41.42
17711;BME280;8975;57.718;12.134;2023-02-02T08:07:25;115940.22;;;-142.68;41.40
17711;BME280;8975;57.718;12.134;2023-02-02T08:09:51;115940.22;;;-142.68;41.21
17711;BME280;8975;57.718;12.134;2023-02-02T08:12:18;115940.22;;;-142.68;41.14
17711;BME280;8975;57.718;12.134;2023-02-02T08:14:43;115940.22;;;-142.68;41.11
17711;BME280;8975;57.718;12.134;2023-02-02T08:17:08;115940.22;;;-142.68;40.59
17711;BME280;8975;57.718;12.134;2023-02-02T08:19:34;115940.22;;;-142.68;40.51
17711;BME280;8975;57.718;12.134;2023-02-02T08:22:01;115940.22;;;-142.68;40.07
17711;BME280;8975;57.718;12.134;2023-02-02T08:24:26;115940.22;;;-142.68;39.98
17711;BME280;8975;57.718;12.134;2023-02-02T08:26:51;115940.22;;;-142.68;39.83
17711;BME280;8975;57.718;12.134;2023-02-02T08:29:17;115940.22;;;-142.68;39.58
17711;BME280;8975;57.718;12.134;2023-02-02T08:31:43;115940.22;;;-142.68;39.33
17711;BME280;8975;57.718;12.134;2023-02-02T08:34:10;115940.22;;;-142.68;39.82
17711;BME280;8975;57.718;12.134;2023-02-02T08:36:36;115940.22;;;-142.68;39.41
17711;BME280;8975;57.718;12.134;2023-02-02T08:39:04;115940.22;;;-142.68;39.62
17711;BME280;8975;57.718;12.134;2023-02-02T08:41:30;115940.22;;;-142.68;40.32
17711;BME280;8975;57.718;12.134;2023-02-02T08:43:55;115940.22;;;-142.68;39.89
17711;BME280;8975;57.718;12.134;2023-02-02T08:46:21;115940.22;;;-142.68;39.75
17711;BME280;8975;57.718;12.134;2023-02-02T08:48:47;115940.22;;;-142.68;39.83
17711;BME280;8975;57.718;12.134;2023-02-02T08:51:15;115940.22;;;-142.68;40.17
17711;BME280;8975;57.718;12.134;2023-02-02T08:53:41;115940.22;;;-142.68;39.74
17711;BME280;8975;57.718;12.134;2023-02-02T08:56:18;115940.22;;;-142.68;39.40
17711;BME280;8975;57.718;12.134;2023-02-02T09:01:18;115940.22;;;-142.68;39.34
17711;BME280;8975;57.718;12.134;2023-02-02T09:03:45;115940.22;;;-142.68;39.60
17711;BME280;8975;57.718;12.134;2023-02-02T09:06:15;115940.22;;;-142.68;39.70
17711;BME280;8975;57.718;12.134;2023-02-02T09:08:42;115940.22;;;-142.68;39.40
17711;BME280;8975;57.718;12.134;2023-02-02T09:11:09;115940.22;;;-142.68;39.46
17711;BME280;8975;57.718;12.134;2023-02-02T09:13:36;115940.22;;;-142.68;39.61
17711;BME280;8975;57.718;12.134;2023-02-02T09:16:03;115940.22;;;-142.68;39.53
17711;BME280;8975;57.718;12.134;2023-02-02T09:18:29;115940.22;;;-142.68;39.98
17711;BME280;8975;57.718;12.134;2023-02-02T09:20:58;115940.22;;;-142.68;39.66
17711;BME280;8975;57.718;12.134;2023-02-02T09:23:24;115940.22;;;-142.68;39.34
17711;BME280;8975;57.718;12.134;2023-02-02T09:25:50;115940.22;;;-142.68;39.45
17711;BME280;8975;57.718;12.134;2023-02-02T09:28:15;115940.22;;;-142.68;39.58
17711;BME280;8975;57.718;12.134;2023-02-02T09:30:41;115940.22;;;-142.68;39.06
17711;BME280;8975;57.718;12.134;2023-02-02T09:33:06;115940.22;;;-142.68;38.82
17711;BME280;8975;57.718;12.134;2023-02-02T09:35:31;115940.22;;;-142.68;38.82
17711;BME280;8975;57.718;12.134;2023-02-02T09:37:57;115940.22;;;-142.68;39.00
17711;BME280;8975;57.718;12.134;2023-02-02T09:40:22;115940.22;;;-142.68;38.91
17711;BME280;8975;57.718;12.134;2023-02-02T09:45:36;115940.22;;;-142.68;38.81
17711;BME280;8975;57.718;12.134;2023-02-02T09:51:02;115940.22;;;-142.68;39.11
17711;BME280;8975;57.718;12.134;2023-02-02T09:53:46;115940.22;;;-142.68;39.48
17711;BME280;8975;57.718;12.134;2023-02-02T09:56:22;115940.22;;;-142.68;39.17
17711;BME280;8975;57.718;12.134;2023-02-02T09:58:52;115940.22;;;-142.68;39.20
17711;BME280;8975;57.718;12.134;2023-02-02T10:01:24;115940.22;;;-142.68;38.97
17711;BME280;8975;57.718;12.134;2023-02-02T10:06:39;115940.22;;;-142.68;38.60
17711;BME280;8975;57.718;12.134;2023-02-02T10:09:33;115940.22;;;-142.68;38.73
17711;BME280;8975;57.718;12.134;2023-02-02T10:18:03;115940.22;;;-142.68;39.40
17711;BME280;8975;57.718;12.134;2023-02-02T10:23:25;115940.22;;;-142.68;38.97
17711;BME280;8975;57.718;12.134;2023-02-02T10:26:10;115940.22;;;-142.68;38.65
17711;BME280;8975;57.718;12.134;2023-02-02T10:28:40;115940.22;;;-142.68;38.96
17711;BME280;8975;57.718;12.134;2023-02-02T10:44:58;115940.22;;;-142.68;38.27
17711;BME280;8975;57.718;12.134;2023-02-02T10:47:27;115940.22;;;-142.68;38.75
17711;BME280;8975;57.718;12.134;2023-02-02T10:52:38;115940.22;;;-142.68;38.56
17711;BME280;8975;57.718;12.134;2023-02-02T11:02:38;115940.22;;;-142.68;38.41
17711;BME280;8975;57.718;12.134;2023-02-02T11:05:03;115940.22;;;-142.68;38.50
17711;BME280;8975;57.718;12.134;2023-02-02T11:07:48;115940.22;;;-142.68;38.56
17711;BME280;8975;57.718;12.134;2023-02-02T11:10:14;115940.22;;;-142.68;38.11
17711;BME280;8975;57.718;12.134;2023-02-02T11:12:43;115940.22;;;-142.68;38.31
17711;BME280;8975;57.718;12.134;2023-02-02T11:15:26;115940.22;;;-142.68;38.27
17711;BME280;8975;57.718;12.134;2023-02-02T11:17:51;115940.22;;;-142.68;39.01
17711;BME280;8975;57.718;12.134;2023-02-02T11:20:34;115940.22;;;-142.68;38.72
17711;BME280;8975;57.718;12.134;2023-02-02T11:23:03;115940.22;;;-142.68;38.26
17711;BME280;8975;57.718;12.134;2023-02-02T11:25:34;115940.22;;;-142.68;38.23
17711;BME280;8975;57.718;12.134;2023-02-02T11:28:18;115940.22;;;-142.68;37.87
17711;BME280;8975;57.718;12.134;2023-02-02T11:30:48;115940.22;;;-142.68;37.66
17711;BME280;8975;57.718;12.134;2023-02-02T11:35:57;115940.22;;;-142.68;38.10
17711;BME280;8975;57.718;12.134;2023-02-02T11:38:23;115940.22;;;-142.68;38.13
17711;BME280;8975;57.718;12.134;2023-02-02T11:40:59;115940.22;;;-142.68;38.60
17711;BME280;8975;57.718;12.134;2023-02-02T11:46:27;115940.22;;;-142.68;37.45
17711;BME280;8975;57.718;12.134;2023-02-02T11:49:02;115940.22;;;-142.68;37.58
17711;BME280;8975;57.718;12.134;2023-02-02T11:51:29;115940.22;;;-142.68;37.35
17711;BME280;8975;57.718;12.134;2023-02-02T11:54:17;115940.22;;;-142.68;37.04
17711;BME280;8975;57.718;12.134;2023-02-02T11:56:51;115940.22;;;-142.68;37.48
17711;BME280;8975;57.718;12.134;2023-02-02T11:59:38;115940.22;;;-142.68;38.14
17711;BME280;8975;57.718;12.134;2023-02-02T12:04:46;115940.22;;;-142.68;37.45
17711;BME280;8975;57.718;12.134;2023-02-02T12:07:27;115940.22;;;-142.68;37.53
17711;BME280;8975;57.718;12.134;2023-02-02T12:09:58;115940.22;;;-142.68;37.84
17711;BME280;8975;57.718;12.134;2023-02-02T12:18:07;115940.22;;;-142.68;38.32
17711;BME280;8975;57.718;12.134;2023-02-02T12:25:59;115940.22;;;-142.68;37.64
17711;BME280;8975;57.718;12.134;2023-02-02T12:33:54;115940.22;;;-142.68;37.30
17711;BME280;8975;57.718;12.134;2023-02-02T12:47:25;115940.22;;;-142.68;36.77
17711;BME280;8975;57.718;12.134;2023-02-02T12:50:15;115940.22;;;-142.68;36.99
17711;BME280;8975;57.718;12.134;2023-02-02T13:06:00;115940.22;;;-142.68;36.94
17711;BME280;8975;57.718;12.134;2023-02-02T13:08:35;115940.22;;;-142.68;37.19
17711;BME280;8975;57.718;12.134;2023-02-02T13:11:07;115940.22;;;-142.68;36.74
17711;BME280;8975;57.718;12.134;2023-02-02T13:13:57;115940.22;;;-142.68;36.79
17711;BME280;8975;57.718;12.134;2023-02-02T13:16:25;115940.22;;;-142.68;36.58
17711;BME280;8975;57.718;12.134;2023-02-02T13:19:03;115940.22;;;-142.68;36.37
17711;BME280;8975;57.718;12.134;2023-02-02T13:21:30;115940.22;;;-142.68;35.92
17711;BME280;8975;57.718;12.134;2023-02-02T13:23:58;115940.22;;;-142.68;36.03
17711;BME280;8975;57.718;12.134;2023-02-02T13:26:35;115940.22;;;-142.68;36.46
17711;BME280;8975;57.718;12.134;2023-02-02T13:36:45;115940.22;;;-142.68;35.54
17711;BME280;8975;57.718;12.134;2023-02-02T13:39:21;115940.22;;;-142.68;36.44
17711;BME280;8975;57.718;12.134;2023-02-02T13:41:48;115940.22;;;-142.68;36.46
17711;BME280;8975;57.718;12.134;2023-02-02T13:44:31;115940.22;;;-142.68;36.52
17711;BME280;8975;57.718;12.134;2023-02-02T13:47:05;115940.22;;;-142.68;36.85
17711;BME280;8975;57.718;12.134;2023-02-02T13:49:43;115940.22;;;-142.68;37.12
17711;BME280;8975;57.718;12.134;2023-02-02T13:52:56;115940.22;;;-142.68;36.90
17711;BME280;8975;57.718;12.134;2023-02-02T13:58:21;115940.22;;;-142.68;36.74
17711;BME280;8975;57.718;12.134;2023-02-02T14:01:11;115940.22;;;-142.68;37.20
17711;BME280;8975;57.718;12.134;2023-02-02T14:03:40;115940.22;;;-142.68;37.21
17711;BME280;8975;57.718;12.134;2023-02-02T14:06:23;115940.22;;;-142.68;37.08
17711;BME280;8975;57.718;12.134;2023-02-02T14:11:19;115940.22;;;-142.68;36.71
17711;BME280;8975;57.718;12.134;2023-02-02T14:13:48;115940.22;;;-142.68;36.66
17711;BME280;8975;57.718;12.134;2023-02-02T14:19:03;115940.22;;;-142.68;37.26
17711;BME280;8975;57.718;12.134;2023-02-02T14:34:43;115940.22;;;-142.68;36.98
17711;BME280;8975;57.718;12.134;2023-02-02T14:48:00;115940.22;;;-142.68;37.76
17711;BME280;8975;57.718;12.134;2023-02-02T14:58:22;115940.22;;;-142.68;38.36
17711;BME280;8975;57.718;12.134;2023-02-02T15:00:59;115940.22;;;-142.68;38.01
17711;BME280;8975;57.718;12.134;2023-02-02T15:03:47;115940.22;;;-142.68;37.81
17711;BME280;8975;57.718;12.134;2023-02-02T15:06:34;115940.22;;;-142.68;37.37
17711;BME280;8975;57.718;12.134;2023-02-02T15:17:23;115940.22;;;-142.68;37.19
17711;BME280;8975;57.718;12.134;2023-02-02T15:20:39;115940.22;;;-142.68;37.25
17711;BME280;8975;57.718;12.134;2023-02-02T15:22:52;115940.22;;;-142.68;37.35
17711;BME280;8975;57.718;12.134;2023-02-02T15:30:57;115940.22;;;-142.68;36.94
17711;BME280;8975;57.718;12.134;2023-02-02T15:33:35;115940.22;;;-142.68;37.31
17711;BME280;8975;57.718;12.134;2023-02-02T15:36:25;115940.22;;;-142.68;37.15
17711;BME280;8975;57.718;12.134;2023-02-02T15:38:55;115940.22;;;-142.68;37.74
17711;BME280;8975;57.718;12.134;2023-02-02T15:43:50;115940.22;;;-142.68;37.86